createdAt,value
2022-09-21T00:01:19.395Z,6.63
2022-09-21T00:03:46.778Z,6.55
2022-09-21T00:06:17.312Z,6.51
2022-09-21T00:08:44.829Z,6.47
2022-09-21T00:11:14.225Z,6.38
2022-09-21T00:13:42.306Z,6.37
2022-09-21T00:16:09.709Z,6.37
2022-09-21T00:18:37.543Z,6.38
2022-09-21T00:21:09.313Z,6.33
2022-09-21T00:23:36.817Z,6.31
2022-09-21T00:26:18.254Z,6.41
2022-09-21T00:28:45.898Z,6.58
2022-09-21T00:31:16.582Z,6.71
2022-09-21T00:33:43.802Z,6.73
2022-09-21T00:36:15.129Z,6.71
2022-09-21T00:38:42.203Z,6.40
2022-09-21T00:41:10.729Z,6.15
2022-09-21T00:43:41.241Z,5.96
2022-09-21T00:46:27.946Z,5.85
2022-09-21T00:48:54.892Z,5.80
2022-09-21T00:51:21.789Z,5.80
2022-09-21T00:53:52.123Z,5.70
2022-09-21T00:56:20.432Z,5.53
2022-09-21T00:58:50.220Z,5.42
2022-09-21T01:01:19.968Z,5.53
2022-09-21T01:03:50.778Z,5.66
2022-09-21T01:06:19.644Z,5.56
2022-09-21T01:08:52.776Z,5.63
2022-09-21T01:11:39.399Z,5.63
2022-09-21T01:14:32.167Z,5.60
2022-09-21T01:17:25.520Z,5.63
2022-09-21T01:20:03.258Z,5.50
2022-09-21T01:22:53.663Z,5.46
2022-09-21T01:25:38.849Z,5.44
2022-09-21T01:28:33.480Z,5.62
2022-09-21T01:31:06.299Z,5.58
2022-09-21T01:33:37.590Z,5.64
2022-09-21T01:36:12.048Z,5.67
2022-09-21T01:38:43.855Z,5.61
2022-09-21T01:41:13.508Z,5.55
2022-09-21T01:43:46.982Z,5.51
2022-09-21T01:46:17.464Z,5.55
2022-09-21T01:48:50.314Z,5.49
2022-09-21T01:51:19.015Z,5.53
2022-09-21T01:53:52.810Z,5.55
2022-09-21T01:56:26.181Z,5.58
2022-09-21T01:58:59.580Z,5.60
2022-09-21T02:01:28.307Z,5.49
2022-09-21T02:03:59.078Z,5.48
2022-09-21T02:06:27.268Z,5.58
2022-09-21T02:08:54.145Z,5.51
2022-09-21T02:11:21.572Z,5.56
2022-09-21T02:13:50.748Z,5.51
2022-09-21T02:16:29.703Z,5.54
2022-09-21T02:19:13.008Z,5.40
2022-09-21T02:22:04.070Z,5.44
2022-09-21T02:24:36.113Z,5.42
2022-09-21T02:27:06.350Z,5.46
2022-09-21T02:29:45.178Z,5.39
2022-09-21T02:32:33.613Z,5.41
2022-09-21T02:35:37.291Z,5.35
2022-09-21T02:38:27.748Z,5.42
2022-09-21T02:41:06.601Z,5.40
2022-09-21T02:43:49.161Z,5.52
2022-09-21T02:46:27.959Z,5.47
2022-09-21T02:49:09.280Z,5.45
2022-09-21T02:51:40.560Z,5.41
2022-09-21T02:54:09.245Z,5.40
2022-09-21T02:56:36.905Z,5.45
2022-09-21T02:59:05.041Z,5.51
2022-09-21T03:01:32.540Z,5.46
2022-09-21T03:03:59.533Z,5.59
2022-09-21T03:06:26.738Z,5.49
2022-09-21T03:08:53.558Z,5.53
2022-09-21T03:11:20.665Z,5.46
2022-09-21T03:13:47.489Z,5.34
2022-09-21T03:16:17.050Z,5.27
2022-09-21T03:18:44.473Z,5.13
2022-09-21T03:21:12.426Z,5.06
2022-09-21T03:23:39.979Z,5.01
2022-09-21T03:26:06.905Z,5.08
2022-09-21T03:28:33.677Z,5.09
2022-09-21T03:31:00.519Z,5.10
2022-09-21T03:33:27.344Z,4.92
2022-09-21T03:35:54.545Z,5.00
2022-09-21T03:38:21.784Z,4.99
2022-09-21T03:40:49.385Z,4.91
2022-09-21T03:43:17.325Z,4.90
2022-09-21T03:45:44.238Z,4.85
2022-09-21T03:48:11.657Z,4.82
2022-09-21T03:50:38.907Z,4.97
2022-09-21T03:53:06.053Z,4.88
2022-09-21T03:55:33.395Z,4.86
2022-09-21T03:58:00.287Z,4.94
2022-09-21T04:00:27.476Z,4.83
2022-09-21T04:02:56.654Z,4.85
2022-09-21T04:05:23.650Z,4.67
2022-09-21T04:07:50.557Z,4.76
2022-09-21T04:10:19.830Z,5.02
2022-09-21T04:12:47.281Z,4.98
2022-09-21T04:15:16.138Z,5.10
2022-09-21T04:17:42.850Z,4.91
2022-09-21T04:20:09.831Z,4.96
2022-09-21T04:22:39.973Z,5.00
2022-09-21T04:25:10.692Z,4.86
2022-09-21T04:27:37.477Z,4.82
2022-09-21T04:30:05.751Z,4.78
2022-09-21T04:32:32.563Z,4.77
2022-09-21T04:34:59.244Z,4.67
2022-09-21T04:37:25.899Z,4.71
2022-09-21T04:39:52.578Z,4.75
2022-09-21T04:42:19.433Z,4.89
2022-09-21T04:44:46.403Z,4.84
2022-09-21T04:47:16.233Z,4.75
2022-09-21T04:49:42.892Z,4.77
2022-09-21T04:52:10.696Z,4.78
2022-09-21T04:54:37.422Z,4.87
2022-09-21T04:57:04.382Z,4.94
2022-09-21T04:59:31.118Z,4.99
2022-09-21T05:01:57.822Z,5.12
2022-09-21T05:04:24.507Z,5.26
2022-09-21T05:06:51.190Z,5.14
2022-09-21T05:09:36.627Z,5.09
2022-09-21T05:12:03.582Z,5.26
2022-09-21T05:14:30.277Z,5.31
2022-09-21T05:16:57.163Z,5.36
2022-09-21T05:19:24.004Z,5.26
2022-09-21T05:21:50.701Z,5.34
2022-09-21T05:24:17.468Z,5.55
2022-09-21T05:26:44.130Z,5.62
2022-09-21T05:29:11.329Z,5.76
2022-09-21T05:31:44.310Z,5.81
2022-09-21T05:34:25.195Z,5.93
2022-09-21T05:36:59.289Z,5.82
2022-09-21T05:39:26.326Z,5.82
2022-09-21T05:41:56.099Z,5.94
2022-09-21T05:44:23.175Z,6.01
2022-09-21T05:47:02.325Z,6.14
2022-09-21T05:49:50.359Z,6.18
2022-09-21T05:52:24.713Z,6.28
2022-09-21T05:54:57.497Z,6.31
2022-09-21T05:57:44.525Z,6.34
2022-09-21T06:00:22.533Z,6.13
2022-09-21T06:03:23.564Z,6.27
2022-09-21T06:05:54.597Z,6.43
2022-09-21T06:08:22.213Z,6.55
2022-09-21T06:10:49.091Z,6.65
2022-09-21T06:13:18.652Z,6.66
2022-09-21T06:15:45.410Z,6.49
2022-09-21T06:18:17.510Z,6.51
2022-09-21T06:20:44.991Z,6.51
2022-09-21T06:23:15.552Z,6.59
2022-09-21T06:25:42.463Z,6.60
2022-09-21T06:28:31.184Z,6.72
2022-09-21T06:30:58.596Z,6.82
2022-09-21T06:33:25.596Z,6.87
2022-09-21T06:35:57.399Z,6.79
2022-09-21T06:38:26.771Z,6.81
2022-09-21T06:40:54.114Z,6.92
2022-09-21T06:43:21.297Z,6.99
2022-09-21T06:45:55.956Z,7.06
2022-09-21T06:48:23.124Z,7.19
2022-09-21T06:50:50.990Z,7.28
2022-09-21T06:53:18.266Z,7.14
2022-09-21T06:55:45.226Z,7.17
2022-09-21T06:58:12.201Z,7.26
2022-09-21T07:00:39.062Z,7.30
2022-09-21T07:03:05.927Z,7.39
2022-09-21T07:05:42.924Z,7.62
2022-09-21T07:10:05.100Z,7.76
2022-09-21T07:11:03.158Z,7.96
2022-09-21T07:13:35.731Z,8.10
2022-09-21T07:16:09.328Z,8.22
2022-09-21T07:18:43.545Z,8.29
2022-09-21T07:21:11.907Z,8.28
2022-09-21T07:23:39.061Z,8.42
2022-09-21T07:26:14.301Z,8.51
2022-09-21T07:28:41.633Z,8.44
2022-09-21T07:31:15.707Z,8.48
2022-09-21T07:33:43.999Z,8.52
2022-09-21T07:36:14.071Z,8.60
2022-09-21T07:38:42.453Z,8.66
2022-09-21T07:41:14.375Z,8.83
2022-09-21T07:43:41.616Z,8.95
2022-09-21T07:46:12.089Z,9.04
2022-09-21T07:48:39.309Z,9.08
2022-09-21T07:51:09.254Z,9.27
2022-09-21T07:53:37.378Z,9.32
2022-09-21T07:56:06.008Z,9.45
2022-09-21T07:58:51.519Z,9.63
2022-09-21T08:01:18.611Z,9.64
2022-09-21T08:03:48.407Z,9.67
2022-09-21T08:06:17.936Z,9.74
2022-09-21T08:08:57.687Z,9.80
2022-09-21T08:11:26.273Z,9.82
2022-09-21T08:14:04.919Z,9.94
2022-09-21T08:16:32.699Z,10.00
2022-09-21T08:19:00.012Z,10.17
2022-09-21T08:21:32.062Z,10.28
2022-09-21T08:24:06.324Z,10.38
2022-09-21T08:26:36.425Z,10.48
2022-09-21T08:29:03.888Z,10.62
2022-09-21T08:31:31.144Z,10.72
2022-09-21T08:33:58.196Z,10.77
2022-09-21T08:36:25.623Z,10.80
2022-09-21T08:38:52.804Z,10.89
2022-09-21T08:42:08.101Z,10.86
2022-09-21T08:44:51.578Z,10.98
2022-09-21T08:47:45.491Z,10.97
2022-09-21T08:50:34.237Z,10.96
2022-09-21T08:53:04.987Z,11.03
2022-09-21T08:55:31.873Z,11.13
2022-09-21T08:58:02.008Z,11.23
2022-09-21T09:00:30.791Z,11.15
2022-09-21T09:03:34.621Z,11.25
2022-09-21T09:06:17.740Z,11.43
2022-09-21T09:08:59.876Z,11.42
2022-09-21T09:12:08.601Z,11.27
2022-09-21T09:14:49.999Z,11.33
2022-09-21T09:17:46.709Z,11.59
2022-09-21T09:20:36.893Z,11.61
2022-09-21T09:23:08.150Z,11.69
2022-09-21T09:25:41.764Z,11.71
2022-09-21T09:28:27.046Z,11.70
2022-09-21T09:31:18.822Z,11.72
2022-09-21T09:34:12.103Z,11.86
2022-09-21T09:36:58.201Z,12.02
2022-09-21T09:39:26.275Z,12.17
2022-09-21T09:42:02.439Z,12.34
2022-09-21T09:44:50.835Z,12.55
2022-09-21T09:47:54.939Z,12.67
2022-09-21T09:50:30.202Z,12.88
2022-09-21T09:53:05.792Z,13.05
2022-09-21T09:55:38.355Z,13.14
2022-09-21T09:58:05.420Z,13.21
2022-09-21T10:00:33.105Z,13.20
2022-09-21T10:02:59.909Z,13.07
2022-09-21T10:05:35.210Z,13.08
2022-09-21T10:08:02.418Z,13.20
2022-09-21T10:10:29.150Z,13.31
2022-09-21T10:13:27.515Z,13.43
2022-09-21T10:15:57.299Z,13.58
2022-09-21T10:18:25.678Z,13.66
2022-09-21T10:20:56.919Z,13.70
2022-09-21T10:23:24.558Z,13.82
2022-09-21T10:26:03.485Z,14.00
2022-09-21T10:28:31.108Z,14.09
2022-09-21T10:31:19.412Z,13.94
2022-09-21T10:34:04.889Z,14.01
2022-09-21T10:36:35.909Z,14.14
2022-09-21T10:39:28.684Z,14.29
2022-09-21T10:42:11.578Z,14.35
2022-09-21T10:44:46.065Z,14.29
2022-09-21T10:47:34.131Z,14.44
2022-09-21T10:50:02.971Z,14.52
2022-09-21T10:52:45.951Z,14.72
2022-09-21T10:55:22.149Z,14.90
2022-09-21T10:57:50.120Z,15.01
2022-09-21T11:00:28.849Z,15.09
2022-09-21T11:02:56.984Z,15.15
2022-09-21T11:05:27.913Z,15.21
2022-09-21T11:08:17.535Z,15.29
2022-09-21T11:11:10.102Z,15.10
2022-09-21T11:13:48.031Z,14.62
2022-09-21T11:16:33.611Z,14.28
2022-09-21T11:19:10.581Z,14.16
2022-09-21T11:21:58.219Z,14.26
2022-09-21T11:24:40.391Z,14.42
2022-09-21T11:27:11.551Z,14.59
2022-09-21T11:29:56.272Z,14.71
2022-09-21T11:32:29.818Z,14.70
2022-09-21T11:35:15.515Z,15.00
2022-09-21T11:37:51.827Z,15.25
2022-09-21T11:40:49.053Z,15.34
2022-09-21T11:43:27.939Z,15.18
2022-09-21T11:46:09.623Z,15.39
2022-09-21T11:49:02.014Z,15.15
2022-09-21T11:51:43.625Z,14.87
2022-09-21T11:54:35.196Z,14.72
2022-09-21T11:57:25.910Z,14.43
2022-09-21T12:00:05.308Z,14.61
2022-09-21T12:02:46.386Z,15.15
2022-09-21T12:05:31.856Z,15.64
2022-09-21T12:08:09.646Z,15.43
2022-09-21T12:11:14.325Z,15.23
2022-09-21T12:14:12.043Z,15.57
2022-09-21T12:16:45.419Z,15.54
2022-09-21T12:19:34.049Z,15.28
2022-09-21T12:22:06.776Z,15.17
2022-09-21T12:24:41.138Z,14.88
2022-09-21T12:27:22.108Z,14.94
2022-09-21T12:29:53.677Z,15.03
2022-09-21T12:32:53.678Z,15.12
2022-09-21T12:35:36.167Z,15.52
2022-09-21T12:38:17.075Z,15.70
2022-09-21T12:40:50.076Z,16.04
2022-09-21T12:43:37.098Z,16.08
2022-09-21T12:46:22.102Z,16.32
2022-09-21T12:49:15.444Z,16.46
2022-09-21T12:51:46.048Z,16.88
2022-09-21T12:54:21.050Z,16.92
2022-09-21T12:57:23.579Z,16.87
2022-09-21T13:00:04.679Z,16.60
2022-09-21T13:02:46.091Z,16.55
2022-09-21T13:05:36.798Z,16.38
2022-09-21T13:08:08.582Z,16.21
2022-09-21T13:10:42.733Z,16.41
2022-09-21T13:13:28.136Z,16.71
2022-09-21T13:15:55.786Z,16.97
2022-09-21T13:18:36.226Z,17.24
2022-09-21T13:21:16.646Z,17.31
2022-09-21T13:23:44.126Z,17.42
2022-09-21T13:26:12.951Z,17.48
2022-09-21T13:28:55.022Z,17.75
2022-09-21T13:31:41.300Z,17.95
2022-09-21T13:34:51.142Z,18.02
2022-09-21T13:37:20.882Z,17.75
2022-09-21T13:39:50.607Z,17.55
2022-09-21T13:42:29.727Z,17.27
2022-09-21T13:45:36.839Z,16.96
2022-09-21T13:48:17.725Z,16.90
2022-09-21T13:50:44.525Z,17.11
2022-09-21T13:53:25.209Z,17.28
2022-09-21T13:55:54.826Z,17.65
2022-09-21T13:58:32.446Z,17.80
2022-09-21T14:01:02.734Z,17.79
2022-09-21T14:03:38.383Z,17.31
2022-09-21T14:06:08.792Z,17.00
2022-09-21T14:08:43.167Z,16.62
2022-09-21T14:11:24.060Z,16.77
2022-09-21T14:14:24.984Z,16.94
2022-09-21T14:16:56.010Z,17.14
2022-09-21T14:19:23.297Z,17.62
2022-09-21T14:22:08.517Z,17.76
2022-09-21T14:24:39.074Z,17.93
2022-09-21T14:27:16.533Z,17.77
2022-09-21T14:29:47.211Z,17.84
2022-09-21T14:32:19.387Z,18.04
2022-09-21T14:34:48.687Z,17.72
2022-09-21T14:37:32.363Z,17.70
2022-09-21T14:40:01.226Z,18.03
2022-09-21T14:42:29.399Z,18.27
2022-09-21T14:44:57.615Z,18.26
2022-09-21T14:47:36.414Z,18.50
2022-09-21T14:50:23.507Z,18.34
2022-09-21T14:53:23.279Z,18.72
2022-09-21T14:56:11.621Z,18.73
2022-09-21T14:58:47.053Z,19.22
2022-09-21T15:01:26.662Z,20.10
2022-09-21T15:04:19.844Z,21.61
2022-09-21T15:07:25.576Z,22.02
2022-09-21T15:10:53.085Z,21.22
2022-09-21T15:13:45.359Z,19.96
2022-09-21T15:16:22.243Z,19.90
2022-09-21T15:18:51.660Z,19.88
2022-09-21T15:21:30.630Z,19.83
2022-09-21T15:24:05.878Z,19.65
2022-09-21T15:26:34.101Z,19.47
2022-09-21T15:29:09.670Z,19.49
2022-09-21T15:31:41.983Z,19.48
2022-09-21T15:34:14.233Z,19.90
2022-09-21T15:36:43.563Z,19.73
2022-09-21T15:39:31.122Z,19.46
2022-09-21T15:42:23.108Z,19.59
2022-09-21T15:44:55.227Z,19.77
2022-09-21T15:47:31.707Z,19.89
2022-09-21T15:50:15.213Z,19.79
2022-09-21T15:53:12.180Z,19.48
2022-09-21T15:55:58.417Z,19.45
2022-09-21T15:59:28.501Z,19.41
2022-09-21T16:02:36.211Z,19.48
2022-09-21T16:05:39.090Z,19.64
2022-09-21T16:08:43.617Z,19.62
2022-09-21T16:11:34.631Z,19.40
2022-09-21T16:14:46.759Z,19.45
2022-09-21T16:17:39.979Z,19.53
2022-09-21T16:20:27.947Z,19.40
2022-09-21T16:23:23.604Z,19.11
2022-09-21T16:26:03.030Z,18.58
2022-09-21T16:28:40.209Z,17.96
2022-09-21T16:31:30.098Z,17.28
2022-09-21T16:34:06.975Z,16.94
2022-09-21T16:36:36.701Z,16.58
2022-09-21T16:39:07.401Z,16.27
2022-09-21T16:41:42.096Z,15.97
2022-09-21T16:44:24.149Z,15.77
2022-09-21T16:46:54.250Z,15.65
2022-09-21T16:49:36.809Z,15.57
2022-09-21T16:52:04.185Z,15.35
2022-09-21T16:54:31.180Z,15.21
2022-09-21T16:57:03.718Z,15.10
2022-09-21T16:59:30.949Z,14.94
2022-09-21T17:01:58.570Z,14.80
2022-09-21T17:04:29.573Z,14.65
2022-09-21T17:07:00.526Z,14.53
2022-09-21T17:09:35.194Z,14.44
2022-09-21T17:12:04.072Z,14.29
2022-09-21T17:14:41.798Z,14.18
2022-09-21T17:17:21.159Z,14.11
2022-09-21T17:19:50.233Z,14.08
2022-09-21T17:22:18.338Z,13.94
2022-09-21T17:24:52.851Z,13.87
2022-09-21T17:27:22.816Z,13.88
2022-09-21T17:29:57.425Z,13.73
2022-09-21T17:32:24.866Z,13.67
2022-09-21T17:35:00.810Z,13.60
2022-09-21T17:37:27.785Z,13.43
2022-09-21T17:39:57.223Z,13.29
2022-09-21T17:42:27.016Z,13.21
2022-09-21T17:45:26.813Z,13.06
2022-09-21T17:47:59.955Z,12.98
2022-09-21T17:50:28.364Z,12.93
2022-09-21T17:53:14.778Z,12.96
2022-09-21T17:55:49.667Z,13.00
2022-09-21T17:58:27.514Z,12.92
2022-09-21T18:01:02.130Z,12.87
2022-09-21T18:03:30.988Z,12.82
2022-09-21T18:06:01.062Z,12.74
2022-09-21T18:08:36.218Z,12.60
2022-09-21T18:11:22.128Z,12.57
2022-09-21T18:14:07.268Z,12.51
2022-09-21T18:17:10.954Z,12.42
2022-09-21T18:19:55.389Z,12.39
2022-09-21T18:23:09.644Z,12.26
2022-09-21T18:25:48.039Z,12.36
2022-09-21T18:28:17.603Z,12.25
2022-09-21T18:31:12.634Z,12.11
2022-09-21T18:34:15.665Z,11.80
2022-09-21T18:40:12.979Z,11.54
2022-09-21T18:42:50.896Z,11.54
2022-09-21T18:45:36.922Z,11.41
2022-09-21T18:48:16.450Z,11.29
2022-09-21T18:50:55.358Z,11.29
2022-09-21T18:53:58.375Z,11.20
2022-09-21T18:56:37.157Z,11.24
2022-09-21T18:59:06.014Z,11.24
2022-09-21T19:01:34.198Z,11.21
2022-09-21T19:04:01.692Z,11.18
2022-09-21T19:06:34.731Z,11.06
2022-09-21T19:09:52.251Z,11.12
2022-09-21T19:16:06.741Z,10.78
2022-09-21T19:19:02.834Z,10.73
2022-09-21T19:21:38.627Z,10.81
2022-09-21T19:24:25.460Z,10.86
2022-09-21T19:27:04.282Z,10.76
2022-09-21T19:29:52.821Z,10.68
2022-09-21T19:32:41.519Z,10.74
2022-09-21T19:35:26.959Z,10.66
2022-09-21T19:37:55.779Z,10.64
2022-09-21T19:40:33.834Z,10.59
2022-09-21T19:43:31.230Z,10.42
2022-09-21T19:46:18.680Z,10.38
2022-09-21T19:48:47.826Z,10.35
2022-09-21T19:51:19.640Z,10.33
2022-09-21T19:54:11.842Z,10.12
2022-09-21T19:57:05.078Z,10.17
2022-09-21T19:59:44.099Z,10.12
2022-09-21T20:02:25.413Z,10.11
2022-09-21T20:04:56.183Z,10.11
2022-09-21T20:07:52.018Z,10.01
2022-09-21T20:10:25.198Z,10.06
2022-09-21T20:13:13.551Z,10.10
2022-09-21T20:16:07.971Z,10.10
2022-09-21T20:18:43.461Z,10.05
2022-09-21T20:21:15.460Z,10.04
2022-09-21T20:23:42.673Z,9.97
2022-09-21T20:26:28.183Z,9.88
2022-09-21T20:28:55.271Z,9.77
2022-09-21T20:31:24.060Z,9.79
2022-09-21T20:33:51.898Z,9.79
2022-09-21T20:36:18.557Z,9.67
2022-09-21T20:38:45.298Z,9.80
2022-09-21T20:41:13.211Z,9.84
2022-09-21T20:43:39.922Z,9.64
2022-09-21T20:46:06.742Z,9.71
2022-09-21T20:48:37.337Z,9.88
2022-09-21T20:51:06.273Z,9.75
2022-09-21T20:53:34.096Z,9.76
2022-09-21T20:56:03.822Z,9.72
2022-09-21T20:58:31.071Z,9.62
2022-09-21T21:01:06.200Z,9.68
2022-09-21T21:03:33.806Z,9.76
2022-09-21T21:06:09.147Z,9.62
2022-09-21T21:08:36.209Z,9.55
2022-09-21T21:11:02.985Z,9.56
2022-09-21T21:13:30.366Z,9.65
2022-09-21T21:15:57.222Z,9.52
2022-09-21T21:18:23.996Z,9.46
2022-09-21T21:20:51.235Z,9.41
2022-09-21T21:23:18.540Z,9.44
2022-09-21T21:25:46.001Z,9.45
2022-09-21T21:28:13.131Z,9.50
2022-09-21T21:30:40.320Z,9.57
2022-09-21T21:33:07.078Z,9.55
2022-09-21T21:35:33.809Z,9.58
2022-09-21T21:38:00.786Z,9.51
2022-09-21T21:40:27.551Z,9.45
2022-09-21T21:42:56.032Z,9.49
2022-09-21T21:45:22.773Z,9.52
2022-09-21T21:47:49.846Z,9.49
2022-09-21T21:50:16.797Z,9.58
2022-09-21T21:52:45.330Z,9.53
2022-09-21T21:55:12.430Z,9.49
2022-09-21T21:57:39.295Z,9.42
2022-09-21T22:00:07.734Z,9.56
2022-09-21T22:02:34.761Z,9.58
2022-09-21T22:05:01.620Z,9.57
2022-09-21T22:07:28.711Z,9.67
2022-09-21T22:09:55.737Z,9.73
2022-09-21T22:12:22.438Z,9.73
2022-09-21T22:14:49.634Z,9.71
2022-09-21T22:17:16.378Z,9.77
2022-09-21T22:19:43.357Z,9.79
2022-09-21T22:22:10.069Z,9.75
2022-09-21T22:24:36.836Z,9.85
2022-09-21T22:27:03.576Z,9.78
2022-09-21T22:29:30.290Z,9.79
2022-09-21T22:31:57.086Z,9.88
2022-09-21T22:34:24.125Z,9.84
2022-09-21T22:36:50.992Z,9.74
2022-09-21T22:39:17.700Z,9.62
2022-09-21T22:41:44.345Z,9.60
2022-09-21T22:44:11.703Z,9.58
2022-09-21T22:46:38.867Z,9.54
2022-09-21T22:49:05.926Z,9.57
2022-09-21T22:51:32.917Z,9.62
2022-09-21T22:54:01.621Z,9.72
2022-09-21T22:56:32.662Z,9.78
2022-09-21T22:59:01.426Z,9.83
2022-09-21T23:01:46.285Z,9.72
2022-09-21T23:04:13.648Z,9.70
2022-09-21T23:06:42.940Z,9.66
2022-09-21T23:09:15.191Z,9.74
2022-09-21T23:11:43.998Z,9.85
2022-09-21T23:14:11.349Z,9.83
2022-09-21T23:16:38.181Z,9.82
2022-09-21T23:19:05.033Z,9.81
2022-09-21T23:21:31.752Z,9.88
2022-09-21T23:24:01.267Z,9.93
2022-09-21T23:26:30.327Z,9.90
2022-09-21T23:28:59.214Z,9.84
2022-09-21T23:31:29.486Z,9.87
2022-09-21T23:33:58.858Z,9.81
2022-09-21T23:36:28.521Z,9.84
2022-09-21T23:38:55.461Z,9.84
2022-09-21T23:41:24.801Z,9.84
2022-09-21T23:43:52.043Z,9.79
2022-09-21T23:46:20.976Z,9.78
2022-09-21T23:48:48.645Z,9.77
2022-09-21T23:51:15.613Z,9.74
2022-09-21T23:53:43.630Z,9.72
2022-09-21T23:56:14.889Z,9.58
2022-09-21T23:58:41.717Z,9.48
